Great Ocean — 3FDA5 — position and weather

sailwx.info

Track history (hours):
 
Tides and Currents Weather Stations Pressure Air Temp Water Temp Dewpoint Dewpoint Depression Visibility Wind Speed Wind Dir Waves Ship Positions

Great Ocean

Last reported at 2014-Oct-12 12:18 UTC. Time now 2014-Oct-22 03:12 UTC.
Position N 01°11' E 103°40'.
Warning: this ship's position is 9 days out of date.

Length 180 m; draft 11 m.

Type: Cargo ship. MMSI: 371452000.

Date/timePositionNaut miles runAvg speedWind from/ knotsBaromVisibWave heightAir tempDewpointWater temp
2014-Oct-12 12:18N 01°11' E 103°40'7 9.6
2014-Oct-12 11:33N 01°10' E 103°47'10 9.8
2014-Oct-12 10:33N 01°14' E 103°56'4 2.0
2014-Oct-12 08:25N 01°17' E 103°59'0 0.0
2014-Oct-12 07:19N 01°17' E 103°59'0 0.1
2014-Oct-12 06:31N 01°17' E 103°59'0 0.1
2014-Oct-12 05:13N 01°17' E 103°59'0 0.1
2014-Oct-12 04:28N 01°17' E 103°59'0 0.1
2014-Oct-12 03:31N 01°17' E 103°58'0 0.0
2014-Oct-12 02:22N 01°17' E 103°58'0 0.0
2014-Oct-12 01:22N 01°17' E 103°58'0 0.0
2014-Oct-12 00:25N 01°17' E 103°58'0 0.1
2014-Oct-11 23:19N 01°17' E 103°59'0 0.0
2014-Oct-11 22:33N 01°17' E 103°59'2 1.7
2014-Oct-11 21:33N 01°16' E 103°58'7 6.9
2014-Oct-11 20:30N 01°16' E 104°05'  
2014-Oct-06 21:04N 08°57' E 122°56'1811.9
2014-Oct-06 19:33N 09°01' E 123°14'1110.6
2014-Oct-06 18:33N 09°09' E 123°21'1212.3
2014-Oct-06 17:33N 09°20' E 123°26'1212.0
2014-Oct-06 16:33N 09°31' E 123°30'  
2014-Oct-04 03:19N 09°44' E 123°33'3 3.4
2014-Oct-04 02:33N 09°44' E 123°36'1 0.7
2014-Oct-04 01:18N 09°44' E 123°36'0 0.2
2014-Oct-04 00:30N 09°44' E 123°36'0 0.3
2014-Oct-03 23:33N 09°43' E 123°36'1 0.9
2014-Oct-03 22:33N 09°43' E 123°37'7 7.3
2014-Oct-03 21:33N 09°42' E 123°44'1 1.1
2014-Oct-03 20:30N 09°42' E 123°43'1 1.0
2014-Oct-03 19:27N 09°42' E 123°42'1 1.0
2014-Oct-03 18:33N 09°42' E 123°41'1 1.0
2014-Oct-03 17:33N 09°42' E 123°40'1 0.4
2014-Oct-03 15:15N 09°42' E 123°39'1 0.7
2014-Oct-03 14:33N 09°42' E 123°38'0 0.3
2014-Oct-03 13:30N 09°42' E 123°38'0 0.3
2014-Oct-03 12:21N 09°42' E 123°38'0 0.4
2014-Oct-03 11:32N 09°42' E 123°37'0 0.4
2014-Oct-03 10:33N 09°42' E 123°37'1 0.6
2014-Oct-03 09:31N 09°42' E 123°36'3 3.6
2014-Oct-03 08:33N 09°45' E 123°38'1 0.1
2014-Oct-02 23:32N 09°46' E 123°38'2 0.4
2014-Oct-02 19:09N 09°48' E 123°38'0 0.4
2014-Oct-02 18:33N 09°48' E 123°38'1 0.5
2014-Oct-02 17:18N 09°47' E 123°38'0 0.4
2014-Oct-02 16:21N 09°47' E 123°38'0 0.5
2014-Oct-02 15:30N 09°46' E 123°38'1 0.9
2014-Oct-02 14:13N 09°45' E 123°38'5 6.6
2014-Oct-02 13:32N 09°46' E 123°43'0 0.2
2014-Oct-02 12:23N 09°46' E 123°43'  
Track history (hours):
 
Tides and Currents Weather Stations Pressure Air Temp Water Temp Dewpoint Dewpoint Depression Visibility Wind Speed Wind Dir Waves Ship Positions

Great Ocean

Last reported at 2014-Oct-12 12:18 UTC. Time now 2014-Oct-22 03:12 UTC.
Position N 01°11' E 103°40'.
Warning: this ship's position is 9 days out of date.

Length 180 m; draft 11 m.

Type: Cargo ship. MMSI: 371452000.

Date/timePositionNaut miles runAvg speedWind from/ knotsBaromVisibWave heightAir tempDewpointWater temp
2014-Oct-12 12:18N 01°11' E 103°40'7 9.6
2014-Oct-12 11:33N 01°10' E 103°47'10 9.8
2014-Oct-12 10:33N 01°14' E 103°56'4 2.0
2014-Oct-12 08:25N 01°17' E 103°59'0 0.0
2014-Oct-12 07:19N 01°17' E 103°59'0 0.1
2014-Oct-12 06:31N 01°17' E 103°59'0 0.1
2014-Oct-12 05:13N 01°17' E 103°59'0 0.1
2014-Oct-12 04:28N 01°17' E 103°59'0 0.1
2014-Oct-12 03:31N 01°17' E 103°58'0 0.0
2014-Oct-12 02:22N 01°17' E 103°58'0 0.0
2014-Oct-12 01:22N 01°17' E 103°58'0 0.0
2014-Oct-12 00:25N 01°17' E 103°58'0 0.1
2014-Oct-11 23:19N 01°17' E 103°59'0 0.0
2014-Oct-11 22:33N 01°17' E 103°59'2 1.7
2014-Oct-11 21:33N 01°16' E 103°58'7 6.9
2014-Oct-11 20:30N 01°16' E 104°05'  
2014-Oct-06 21:04N 08°57' E 122°56'1811.9
2014-Oct-06 19:33N 09°01' E 123°14'1110.6
2014-Oct-06 18:33N 09°09' E 123°21'1212.3
2014-Oct-06 17:33N 09°20' E 123°26'1212.0
2014-Oct-06 16:33N 09°31' E 123°30'  
2014-Oct-04 03:19N 09°44' E 123°33'3 3.4
2014-Oct-04 02:33N 09°44' E 123°36'1 0.7
2014-Oct-04 01:18N 09°44' E 123°36'0 0.2
2014-Oct-04 00:30N 09°44' E 123°36'0 0.3
2014-Oct-03 23:33N 09°43' E 123°36'1 0.9
2014-Oct-03 22:33N 09°43' E 123°37'7 7.3
2014-Oct-03 21:33N 09°42' E 123°44'1 1.1
2014-Oct-03 20:30N 09°42' E 123°43'1 1.0
2014-Oct-03 19:27N 09°42' E 123°42'1 1.0
2014-Oct-03 18:33N 09°42' E 123°41'1 1.0
2014-Oct-03 17:33N 09°42' E 123°40'1 0.4
2014-Oct-03 15:15N 09°42' E 123°39'1 0.7
2014-Oct-03 14:33N 09°42' E 123°38'0 0.3
2014-Oct-03 13:30N 09°42' E 123°38'0 0.3
2014-Oct-03 12:21N 09°42' E 123°38'0 0.4
2014-Oct-03 11:32N 09°42' E 123°37'0 0.4
2014-Oct-03 10:33N 09°42' E 123°37'1 0.6
2014-Oct-03 09:31N 09°42' E 123°36'3 3.6
2014-Oct-03 08:33N 09°45' E 123°38'1 0.1
2014-Oct-02 23:32N 09°46' E 123°38'2 0.4
2014-Oct-02 19:09N 09°48' E 123°38'0 0.4
2014-Oct-02 18:33N 09°48' E 123°38'1 0.5
2014-Oct-02 17:18N 09°47' E 123°38'0 0.4
2014-Oct-02 16:21N 09°47' E 123°38'0 0.5
2014-Oct-02 15:30N 09°46' E 123°38'1 0.9
2014-Oct-02 14:13N 09°45' E 123°38'5 6.6
2014-Oct-02 13:32N 09°46' E 123°43'0 0.2
2014-Oct-02 12:23N 09°46' E 123°43'  

Dump ship's entire track history